BHP weather

Bhojpur Airport
Bhojpur, Kosi, Nepal

Public forecast

Using degrees Celsius for public forecast. Weather courtesy of forecast.io.

METAR (pilot weather report)

Closest report is Bagdogra Airport, 73.9 nm (136.9 km) ESE. Retrieved 2019/09/23 17:30 UTC (0 seconds ago):

VEBD 231730Z 04003KT 6000 SCT015 SCT025 BKN080 25/22 Q1014 TEMPO -RA

TAF (pilot weather forecast)

Closest forecast is Bagdogra Airport, 73.9 nm (136.9 km) ESE. Retrieved 2019/09/23 12:30 UTC (5 hours ago):

TAF VEBD 230930Z 2312/2324 09005KT 4000 RABR SCT015 SCT020 FEW030TCU BKN090 TEMPO 2320.2324 1500 TSRA FEW015 SCT020 FEW030CB BKN080